sensor_id;sensor_type;location;lat;lon;timestamp;temperature;humidity
69328;DHT22;56472;52.114;5.492;2023-04-25T00:01:56;9.40;86.00
69328;DHT22;56472;52.114;5.492;2023-04-25T00:04:23;9.40;85.90
69328;DHT22;56472;52.114;5.492;2023-04-25T00:06:50;9.40;85.60
69328;DHT22;56472;52.114;5.492;2023-04-25T00:09:18;9.40;85.40
69328;DHT22;56472;52.114;5.492;2023-04-25T00:11:45;9.30;85.00
69328;DHT22;56472;52.114;5.492;2023-04-25T00:14:12;9.20;84.60
69328;DHT22;56472;52.114;5.492;2023-04-25T00:16:39;9.20;84.40
69328;DHT22;56472;52.114;5.492;2023-04-25T00:19:08;9.10;83.90
69328;DHT22;56472;52.114;5.492;2023-04-25T00:21:36;9.00;83.80
69328;DHT22;56472;52.114;5.492;2023-04-25T00:24:07;8.90;84.70
69328;DHT22;56472;52.114;5.492;2023-04-25T00:26:34;8.80;84.20
69328;DHT22;56472;52.114;5.492;2023-04-25T00:29:02;8.70;84.70
69328;DHT22;56472;52.114;5.492;2023-04-25T00:31:29;8.70;85.20
69328;DHT22;56472;52.114;5.492;2023-04-25T00:33:57;8.60;85.50
69328;DHT22;56472;52.114;5.492;2023-04-25T00:36:24;8.50;85.60
69328;DHT22;56472;52.114;5.492;2023-04-25T00:38:53;8.50;85.80
69328;DHT22;56472;52.114;5.492;2023-04-25T00:41:21;8.50;86.00
69328;DHT22;56472;52.114;5.492;2023-04-25T00:43:49;8.50;86.20
69328;DHT22;56472;52.114;5.492;2023-04-25T00:46:17;8.50;86.30
69328;DHT22;56472;52.114;5.492;2023-04-25T00:48:44;8.60;86.50
69328;DHT22;56472;52.114;5.492;2023-04-25T00:51:19;8.50;86.40
69328;DHT22;56472;52.114;5.492;2023-04-25T00:53:47;8.60;86.40
69328;DHT22;56472;52.114;5.492;2023-04-25T00:56:15;8.60;86.30
69328;DHT22;56472;52.114;5.492;2023-04-25T00:58:42;8.50;86.10
69328;DHT22;56472;52.114;5.492;2023-04-25T01:01:12;8.50;86.10
69328;DHT22;56472;52.114;5.492;2023-04-25T01:03:40;8.60;86.20
69328;DHT22;56472;52.114;5.492;2023-04-25T01:06:09;8.50;86.10
69328;DHT22;56472;52.114;5.492;2023-04-25T01:08:38;8.60;86.20
69328;DHT22;56472;52.114;5.492;2023-04-25T01:11:06;8.60;86.10
69328;DHT22;56472;52.114;5.492;2023-04-25T01:13:34;8.60;86.10
69328;DHT22;56472;52.114;5.492;2023-04-25T01:16:02;8.60;86.00
69328;DHT22;56472;52.114;5.492;2023-04-25T01:18:29;8.50;85.80
69328;DHT22;56472;52.114;5.492;2023-04-25T01:21:16;8.50;85.60
69328;DHT22;56472;52.114;5.492;2023-04-25T01:23:44;8.50;85.60
69328;DHT22;56472;52.114;5.492;2023-04-25T01:26:12;8.50;85.50
69328;DHT22;56472;52.114;5.492;2023-04-25T01:28:39;8.50;85.40
69328;DHT22;56472;52.114;5.492;2023-04-25T01:31:11;8.40;85.20
69328;DHT22;56472;52.114;5.492;2023-04-25T01:33:38;8.40;85.20
69328;DHT22;56472;52.114;5.492;2023-04-25T01:36:06;8.30;85.10
69328;DHT22;56472;52.114;5.492;2023-04-25T01:38:34;8.30;85.00
69328;DHT22;56472;52.114;5.492;2023-04-25T01:41:01;8.30;85.00
69328;DHT22;56472;52.114;5.492;2023-04-25T01:43:29;8.30;85.00
69328;DHT22;56472;52.114;5.492;2023-04-25T01:45:56;8.20;84.90
69328;DHT22;56472;52.114;5.492;2023-04-25T01:48:24;8.20;84.90
69328;DHT22;56472;52.114;5.492;2023-04-25T01:50:51;8.20;84.90
69328;DHT22;56472;52.114;5.492;2023-04-25T01:53:18;8.20;85.00
69328;DHT22;56472;52.114;5.492;2023-04-25T01:55:45;8.10;84.90
69328;DHT22;56472;52.114;5.492;2023-04-25T01:58:15;8.10;84.90
69328;DHT22;56472;52.114;5.492;2023-04-25T02:01:00;8.10;84.90
69328;DHT22;56472;52.114;5.492;2023-04-25T02:03:34;8.10;84.50
69328;DHT22;56472;52.114;5.492;2023-04-25T02:06:03;8.10;84.30
69328;DHT22;56472;52.114;5.492;2023-04-25T02:08:33;8.10;84.10
69328;DHT22;56472;52.114;5.492;2023-04-25T02:11:00;8.10;84.10
69328;DHT22;56472;52.114;5.492;2023-04-25T02:13:33;8.10;84.20
69328;DHT22;56472;52.114;5.492;2023-04-25T02:16:18;8.10;84.10
69328;DHT22;56472;52.114;5.492;2023-04-25T02:18:45;8.10;84.00
69328;DHT22;56472;52.114;5.492;2023-04-25T02:21:12;8.10;84.00
69328;DHT22;56472;52.114;5.492;2023-04-25T02:23:39;8.10;84.10
69328;DHT22;56472;52.114;5.492;2023-04-25T02:26:06;8.10;84.20
69328;DHT22;56472;52.114;5.492;2023-04-25T02:28:33;8.10;84.10
69328;DHT22;56472;52.114;5.492;2023-04-25T02:31:03;8.10;84.10
69328;DHT22;56472;52.114;5.492;2023-04-25T02:33:30;8.10;84.10
69328;DHT22;56472;52.114;5.492;2023-04-25T02:35:57;8.20;84.10
69328;DHT22;56472;52.114;5.492;2023-04-25T02:38:24;8.20;84.00
69328;DHT22;56472;52.114;5.492;2023-04-25T02:40:51;8.20;83.80
69328;DHT22;56472;52.114;5.492;2023-04-25T02:43:18;8.20;83.60
69328;DHT22;56472;52.114;5.492;2023-04-25T02:45:44;8.20;83.30
69328;DHT22;56472;52.114;5.492;2023-04-25T02:48:11;8.20;83.10
69328;DHT22;56472;52.114;5.492;2023-04-25T02:50:38;8.20;83.00
69328;DHT22;56472;52.114;5.492;2023-04-25T02:53:05;8.10;83.00
69328;DHT22;56472;52.114;5.492;2023-04-25T02:55:37;8.10;83.00
69328;DHT22;56472;52.114;5.492;2023-04-25T02:58:05;8.10;83.10
69328;DHT22;56472;52.114;5.492;2023-04-25T03:00:41;8.00;83.20
69328;DHT22;56472;52.114;5.492;2023-04-25T03:03:08;8.10;83.30
69328;DHT22;56472;52.114;5.492;2023-04-25T03:05:35;8.10;83.30
69328;DHT22;56472;52.114;5.492;2023-04-25T03:08:03;8.00;83.30
69328;DHT22;56472;52.114;5.492;2023-04-25T03:10:31;8.10;83.20
69328;DHT22;56472;52.114;5.492;2023-04-25T03:13:03;8.00;83.00
69328;DHT22;56472;52.114;5.492;2023-04-25T03:15:29;8.00;83.20
69328;DHT22;56472;52.114;5.492;2023-04-25T03:17:57;8.00;83.30
69328;DHT22;56472;52.114;5.492;2023-04-25T03:20:24;7.90;83.20
69328;DHT22;56472;52.114;5.492;2023-04-25T03:22:51;7.90;83.30
69328;DHT22;56472;52.114;5.492;2023-04-25T03:25:18;7.90;83.40
69328;DHT22;56472;52.114;5.492;2023-04-25T03:27:45;7.90;83.40
69328;DHT22;56472;52.114;5.492;2023-04-25T03:30:12;7.90;83.40
69328;DHT22;56472;52.114;5.492;2023-04-25T03:32:41;7.90;83.20
69328;DHT22;56472;52.114;5.492;2023-04-25T03:35:08;7.90;83.20
69328;DHT22;56472;52.114;5.492;2023-04-25T03:37:35;7.80;83.10
69328;DHT22;56472;52.114;5.492;2023-04-25T03:40:03;7.80;83.10
69328;DHT22;56472;52.114;5.492;2023-04-25T03:42:50;7.80;83.00
69328;DHT22;56472;52.114;5.492;2023-04-25T03:45:17;7.70;83.00
69328;DHT22;56472;52.114;5.492;2023-04-25T03:47:44;7.70;83.20
69328;DHT22;56472;52.114;5.492;2023-04-25T03:50:12;7.70;83.50
69328;DHT22;56472;52.114;5.492;2023-04-25T03:52:38;7.70;83.70
69328;DHT22;56472;52.114;5.492;2023-04-25T03:55:06;7.60;83.70
69328;DHT22;56472;52.114;5.492;2023-04-25T03:57:33;7.70;83.70
69328;DHT22;56472;52.114;5.492;2023-04-25T04:00:00;7.70;83.70
69328;DHT22;56472;52.114;5.492;2023-04-25T04:02:38;7.60;83.80
69328;DHT22;56472;52.114;5.492;2023-04-25T04:05:10;7.70;84.00
69328;DHT22;56472;52.114;5.492;2023-04-25T04:07:44;7.60;84.20
69328;DHT22;56472;52.114;5.492;2023-04-25T04:10:12;7.60;84.30
69328;DHT22;56472;52.114;5.492;2023-04-25T04:12:40;7.60;84.40
69328;DHT22;56472;52.114;5.492;2023-04-25T04:15:07;7.60;84.40
69328;DHT22;56472;52.114;5.492;2023-04-25T04:17:35;7.50;84.50
69328;DHT22;56472;52.114;5.492;2023-04-25T04:20:02;7.50;84.60
69328;DHT22;56472;52.114;5.492;2023-04-25T04:22:31;7.50;84.70
69328;DHT22;56472;52.114;5.492;2023-04-25T04:25:03;7.50;85.00
69328;DHT22;56472;52.114;5.492;2023-04-25T04:27:51;7.60;85.20
69328;DHT22;56472;52.114;5.492;2023-04-25T04:30:27;7.60;85.30
69328;DHT22;56472;52.114;5.492;2023-04-25T04:32:59;7.60;85.40
69328;DHT22;56472;52.114;5.492;2023-04-25T04:35:28;7.60;85.50
69328;DHT22;56472;52.114;5.492;2023-04-25T04:37:54;7.60;85.40
69328;DHT22;56472;52.114;5.492;2023-04-25T04:40:24;7.60;85.40
69328;DHT22;56472;52.114;5.492;2023-04-25T04:43:01;7.60;85.50
69328;DHT22;56472;52.114;5.492;2023-04-25T04:45:49;7.70;85.50
69328;DHT22;56472;52.114;5.492;2023-04-25T04:48:33;7.70;85.10
69328;DHT22;56472;52.114;5.492;2023-04-25T04:51:19;7.70;84.90
69328;DHT22;56472;52.114;5.492;2023-04-25T04:54:03;7.80;84.90
69328;DHT22;56472;52.114;5.492;2023-04-25T04:56:44;7.80;84.70
69328;DHT22;56472;52.114;5.492;2023-04-25T04:59:24;7.90;84.50
69328;DHT22;56472;52.114;5.492;2023-04-25T05:02:15;7.90;84.20
69328;DHT22;56472;52.114;5.492;2023-04-25T05:05:21;7.90;84.00
69328;DHT22;56472;52.114;5.492;2023-04-25T05:08:02;7.90;83.90
69328;DHT22;56472;52.114;5.492;2023-04-25T05:10:47;8.00;84.00
69328;DHT22;56472;52.114;5.492;2023-04-25T05:13:37;8.00;83.80
69328;DHT22;56472;52.114;5.492;2023-04-25T05:16:34;8.10;83.40
69328;DHT22;56472;52.114;5.492;2023-04-25T05:19:20;8.10;83.20
69328;DHT22;56472;52.114;5.492;2023-04-25T05:22:10;8.10;83.10
69328;DHT22;56472;52.114;5.492;2023-04-25T05:25:04;8.20;83.10
69328;DHT22;56472;52.114;5.492;2023-04-25T05:28:12;8.20;83.20
69328;DHT22;56472;52.114;5.492;2023-04-25T05:30:50;8.20;83.30
69328;DHT22;56472;52.114;5.492;2023-04-25T05:33:28;8.20;83.10
69328;DHT22;56472;52.114;5.492;2023-04-25T05:35:55;8.20;83.20
69328;DHT22;56472;52.114;5.492;2023-04-25T05:38:24;8.10;83.20
69328;DHT22;56472;52.114;5.492;2023-04-25T05:41:14;8.20;83.10
69328;DHT22;56472;52.114;5.492;2023-04-25T05:44:00;8.20;83.30
69328;DHT22;56472;52.114;5.492;2023-04-25T05:46:39;8.20;83.30
69328;DHT22;56472;52.114;5.492;2023-04-25T05:49:26;8.20;83.30
69328;DHT22;56472;52.114;5.492;2023-04-25T05:52:12;8.30;83.30
69328;DHT22;56472;52.114;5.492;2023-04-25T05:55:02;8.30;83.40
69328;DHT22;56472;52.114;5.492;2023-04-25T05:57:31;8.30;83.50
69328;DHT22;56472;52.114;5.492;2023-04-25T05:59:58;8.30;83.60
69328;DHT22;56472;52.114;5.492;2023-04-25T06:02:39;8.40;83.70
69328;DHT22;56472;52.114;5.492;2023-04-25T06:05:07;8.40;83.70
69328;DHT22;56472;52.114;5.492;2023-04-25T06:07:35;8.50;83.60
69328;DHT22;56472;52.114;5.492;2023-04-25T06:10:03;8.50;83.50
69328;DHT22;56472;52.114;5.492;2023-04-25T06:12:33;8.50;83.20
69328;DHT22;56472;52.114;5.492;2023-04-25T06:15:00;8.60;83.00
69328;DHT22;56472;52.114;5.492;2023-04-25T06:17:30;8.60;83.30
69328;DHT22;56472;52.114;5.492;2023-04-25T06:19:57;8.60;83.20
69328;DHT22;56472;52.114;5.492;2023-04-25T06:22:24;8.60;82.90
69328;DHT22;56472;52.114;5.492;2023-04-25T06:24:51;8.70;83.10
69328;DHT22;56472;52.114;5.492;2023-04-25T06:27:18;8.70;83.20
69328;DHT22;56472;52.114;5.492;2023-04-25T06:29:45;8.80;82.90
69328;DHT22;56472;52.114;5.492;2023-04-25T06:32:13;8.80;83.00
69328;DHT22;56472;52.114;5.492;2023-04-25T06:34:40;8.90;83.00
69328;DHT22;56472;52.114;5.492;2023-04-25T06:37:07;8.90;83.10
69328;DHT22;56472;52.114;5.492;2023-04-25T06:39:35;9.00;82.50
69328;DHT22;56472;52.114;5.492;2023-04-25T06:42:04;9.10;82.40
69328;DHT22;56472;52.114;5.492;2023-04-25T06:44:40;9.10;81.60
69328;DHT22;56472;52.114;5.492;2023-04-25T06:47:08;9.10;81.00
69328;DHT22;56472;52.114;5.492;2023-04-25T06:49:35;9.20;81.60
69328;DHT22;56472;52.114;5.492;2023-04-25T06:52:02;9.20;81.50
69328;DHT22;56472;52.114;5.492;2023-04-25T06:54:29;9.20;81.50
69328;DHT22;56472;52.114;5.492;2023-04-25T06:57:05;9.30;81.30
69328;DHT22;56472;52.114;5.492;2023-04-25T06:59:32;9.30;80.70
69328;DHT22;56472;52.114;5.492;2023-04-25T07:01:59;9.30;80.60
69328;DHT22;56472;52.114;5.492;2023-04-25T07:04:26;9.30;80.10
69328;DHT22;56472;52.114;5.492;2023-04-25T07:06:57;9.40;80.00
69328;DHT22;56472;52.114;5.492;2023-04-25T07:09:32;9.50;80.60
69328;DHT22;56472;52.114;5.492;2023-04-25T07:12:00;9.50;79.90
69328;DHT22;56472;52.114;5.492;2023-04-25T07:14:30;9.50;79.80
69328;DHT22;56472;52.114;5.492;2023-04-25T07:16:58;9.60;79.90
69328;DHT22;56472;52.114;5.492;2023-04-25T07:19:28;9.70;80.10
69328;DHT22;56472;52.114;5.492;2023-04-25T07:21:59;9.70;79.60
69328;DHT22;56472;52.114;5.492;2023-04-25T07:24:26;9.80;79.50
69328;DHT22;56472;52.114;5.492;2023-04-25T07:26:54;9.80;79.60
69328;DHT22;56472;52.114;5.492;2023-04-25T07:29:28;9.90;79.40
69328;DHT22;56472;52.114;5.492;2023-04-25T07:31:58;9.90;78.60
69328;DHT22;56472;52.114;5.492;2023-04-25T07:34:25;10.00;78.60
69328;DHT22;56472;52.114;5.492;2023-04-25T07:36:52;10.00;78.50
69328;DHT22;56472;52.114;5.492;2023-04-25T07:39:19;10.00;76.20
69328;DHT22;56472;52.114;5.492;2023-04-25T07:41:47;10.00;75.60
69328;DHT22;56472;52.114;5.492;2023-04-25T07:44:19;10.00;75.10
69328;DHT22;56472;52.114;5.492;2023-04-25T07:46:46;9.90;75.30
69328;DHT22;56472;52.114;5.492;2023-04-25T07:49:13;10.00;76.30
69328;DHT22;56472;52.114;5.492;2023-04-25T07:51:43;10.00;75.00
69328;DHT22;56472;52.114;5.492;2023-04-25T07:54:14;10.00;75.40
69328;DHT22;56472;52.114;5.492;2023-04-25T07:56:45;10.00;75.30
69328;DHT22;56472;52.114;5.492;2023-04-25T07:59:20;10.00;75.40
69328;DHT22;56472;52.114;5.492;2023-04-25T08:01:47;10.10;74.70
69328;DHT22;56472;52.114;5.492;2023-04-25T08:04:15;10.10;75.30
69328;DHT22;56472;52.114;5.492;2023-04-25T08:07:01;10.20;74.40
69328;DHT22;56472;52.114;5.492;2023-04-25T08:09:34;10.30;73.10
69328;DHT22;56472;52.114;5.492;2023-04-25T08:12:06;10.40;73.50
69328;DHT22;56472;52.114;5.492;2023-04-25T08:14:33;10.50;74.20
69328;DHT22;56472;52.114;5.492;2023-04-25T08:17:04;10.60;72.20
69328;DHT22;56472;52.114;5.492;2023-04-25T08:19:33;10.60;70.00
69328;DHT22;56472;52.114;5.492;2023-04-25T08:22:01;10.50;70.70
69328;DHT22;56472;52.114;5.492;2023-04-25T08:24:38;10.60;71.10
69328;DHT22;56472;52.114;5.492;2023-04-25T08:27:07;10.60;70.60
69328;DHT22;56472;52.114;5.492;2023-04-25T08:29:35;10.70;70.80
69328;DHT22;56472;52.114;5.492;2023-04-25T08:32:02;10.70;70.30
69328;DHT22;56472;52.114;5.492;2023-04-25T08:34:30;10.70;70.10
69328;DHT22;56472;52.114;5.492;2023-04-25T08:37:01;10.60;70.10
69328;DHT22;56472;52.114;5.492;2023-04-25T08:39:39;10.40;70.30
69328;DHT22;56472;52.114;5.492;2023-04-25T08:42:45;10.30;70.40
69328;DHT22;56472;52.114;5.492;2023-04-25T08:45:13;10.20;70.90
69328;DHT22;56472;52.114;5.492;2023-04-25T08:47:43;10.20;71.60
69328;DHT22;56472;52.114;5.492;2023-04-25T08:50:10;10.10;72.10
69328;DHT22;56472;52.114;5.492;2023-04-25T08:52:43;10.20;73.10
69328;DHT22;56472;52.114;5.492;2023-04-25T08:55:12;10.30;71.10
69328;DHT22;56472;52.114;5.492;2023-04-25T08:57:42;10.30;70.50
69328;DHT22;56472;52.114;5.492;2023-04-25T09:00:12;10.40;70.60
69328;DHT22;56472;52.114;5.492;2023-04-25T09:02:42;10.40;70.80
69328;DHT22;56472;52.114;5.492;2023-04-25T09:05:13;10.40;69.40
69328;DHT22;56472;52.114;5.492;2023-04-25T09:07:40;10.50;70.20
69328;DHT22;56472;52.114;5.492;2023-04-25T09:10:07;10.50;70.00
69328;DHT22;56472;52.114;5.492;2023-04-25T09:12:36;10.50;69.30
69328;DHT22;56472;52.114;5.492;2023-04-25T09:15:09;10.50;69.40
69328;DHT22;56472;52.114;5.492;2023-04-25T09:17:58;10.60;70.40
69328;DHT22;56472;52.114;5.492;2023-04-25T09:20:41;10.70;70.50
69328;DHT22;56472;52.114;5.492;2023-04-25T09:23:27;10.80;70.20
69328;DHT22;56472;52.114;5.492;2023-04-25T09:25:54;11.00;70.50
69328;DHT22;56472;52.114;5.492;2023-04-25T09:28:26;11.20;70.50
69328;DHT22;56472;52.114;5.492;2023-04-25T09:30:57;11.40;70.00
69328;DHT22;56472;52.114;5.492;2023-04-25T09:33:59;11.50;70.50
69328;DHT22;56472;52.114;5.492;2023-04-25T09:36:29;11.60;67.10
69328;DHT22;56472;52.114;5.492;2023-04-25T09:39:22;11.70;64.30
69328;DHT22;56472;52.114;5.492;2023-04-25T09:41:57;11.60;64.30
69328;DHT22;56472;52.114;5.492;2023-04-25T09:44:24;11.60;63.60
69328;DHT22;56472;52.114;5.492;2023-04-25T09:46:53;11.60;64.40
69328;DHT22;56472;52.114;5.492;2023-04-25T09:49:24;11.60;64.90
69328;DHT22;56472;52.114;5.492;2023-04-25T09:52:06;11.60;65.30
69328;DHT22;56472;52.114;5.492;2023-04-25T09:54:48;11.60;65.10
69328;DHT22;56472;52.114;5.492;2023-04-25T09:57:23;11.50;66.30
69328;DHT22;56472;52.114;5.492;2023-04-25T09:59:53;11.50;67.00
69328;DHT22;56472;52.114;5.492;2023-04-25T10:02:23;11.50;66.90
69328;DHT22;56472;52.114;5.492;2023-04-25T10:04:55;11.50;66.80
69328;DHT22;56472;52.114;5.492;2023-04-25T10:07:30;11.40;67.00
69328;DHT22;56472;52.114;5.492;2023-04-25T10:10:00;11.40;67.50
69328;DHT22;56472;52.114;5.492;2023-04-25T10:12:30;11.30;65.50
69328;DHT22;56472;52.114;5.492;2023-04-25T10:15:01;11.30;64.10
69328;DHT22;56472;52.114;5.492;2023-04-25T10:17:29;11.30;64.90
69328;DHT22;56472;52.114;5.492;2023-04-25T10:19:56;11.30;65.10
69328;DHT22;56472;52.114;5.492;2023-04-25T10:22:30;11.30;65.40
69328;DHT22;56472;52.114;5.492;2023-04-25T10:24:57;11.40;67.00
69328;DHT22;56472;52.114;5.492;2023-04-25T10:27:27;11.50;66.80
69328;DHT22;56472;52.114;5.492;2023-04-25T10:32:39;11.80;66.70
69328;DHT22;56472;52.114;5.492;2023-04-25T10:35:15;12.10;67.40
69328;DHT22;56472;52.114;5.492;2023-04-25T10:38:13;12.30;66.20
69328;DHT22;56472;52.114;5.492;2023-04-25T10:40:40;12.60;65.70
69328;DHT22;56472;52.114;5.492;2023-04-25T10:45:59;12.90;63.80
69328;DHT22;56472;52.114;5.492;2023-04-25T10:48:28;13.10;62.10
69328;DHT22;56472;52.114;5.492;2023-04-25T10:51:12;13.20;62.30
69328;DHT22;56472;52.114;5.492;2023-04-25T10:53:47;13.30;59.90
69328;DHT22;56472;52.114;5.492;2023-04-25T10:56:30;13.30;58.40
69328;DHT22;56472;52.114;5.492;2023-04-25T10:59:06;13.30;58.30
69328;DHT22;56472;52.114;5.492;2023-04-25T11:04:29;13.00;59.80
69328;DHT22;56472;52.114;5.492;2023-04-25T11:09:38;13.10;59.50
69328;DHT22;56472;52.114;5.492;2023-04-25T11:12:09;13.20;59.70
69328;DHT22;56472;52.114;5.492;2023-04-25T11:14:39;13.30;61.30
69328;DHT22;56472;52.114;5.492;2023-04-25T11:17:06;13.50;62.30
69328;DHT22;56472;52.114;5.492;2023-04-25T11:19:33;13.70;59.60
69328;DHT22;56472;52.114;5.492;2023-04-25T11:22:01;13.70;56.20
69328;DHT22;56472;52.114;5.492;2023-04-25T11:24:33;13.60;56.90
69328;DHT22;56472;52.114;5.492;2023-04-25T11:27:04;13.30;58.00
69328;DHT22;56472;52.114;5.492;2023-04-25T11:29:35;13.00;59.10
69328;DHT22;56472;52.114;5.492;2023-04-25T11:32:02;12.70;61.00
69328;DHT22;56472;52.114;5.492;2023-04-25T11:34:30;12.40;62.30
69328;DHT22;56472;52.114;5.492;2023-04-25T11:36:57;12.10;63.50
69328;DHT22;56472;52.114;5.492;2023-04-25T11:39:26;11.90;64.40
69328;DHT22;56472;52.114;5.492;2023-04-25T11:41:54;11.70;65.10
69328;DHT22;56472;52.114;5.492;2023-04-25T11:44:22;11.60;65.60
69328;DHT22;56472;52.114;5.492;2023-04-25T11:46:49;11.50;66.20
69328;DHT22;56472;52.114;5.492;2023-04-25T11:49:16;11.40;67.00
69328;DHT22;56472;52.114;5.492;2023-04-25T11:51:47;11.40;67.60
69328;DHT22;56472;52.114;5.492;2023-04-25T11:54:15;11.50;67.10
69328;DHT22;56472;52.114;5.492;2023-04-25T11:56:43;11.50;67.10
69328;DHT22;56472;52.114;5.492;2023-04-25T11:59:10;11.50;67.40
69328;DHT22;56472;52.114;5.492;2023-04-25T12:01:40;11.60;67.10
69328;DHT22;56472;52.114;5.492;2023-04-25T12:04:22;11.70;67.20
69328;DHT22;56472;52.114;5.492;2023-04-25T12:06:51;11.80;67.80
69328;DHT22;56472;52.114;5.492;2023-04-25T12:09:32;11.90;66.10
69328;DHT22;56472;52.114;5.492;2023-04-25T12:12:00;12.00;65.10
69328;DHT22;56472;52.114;5.492;2023-04-25T12:14:32;12.10;64.70
69328;DHT22;56472;52.114;5.492;2023-04-25T12:17:01;12.20;64.30
69328;DHT22;56472;52.114;5.492;2023-04-25T12:19:35;12.30;64.70
69328;DHT22;56472;52.114;5.492;2023-04-25T12:22:07;12.40;65.60
69328;DHT22;56472;52.114;5.492;2023-04-25T12:24:45;12.50;64.20
69328;DHT22;56472;52.114;5.492;2023-04-25T12:27:15;12.60;62.70
69328;DHT22;56472;52.114;5.492;2023-04-25T12:29:54;12.70;61.90
69328;DHT22;56472;52.114;5.492;2023-04-25T12:32:22;12.70;61.20
69328;DHT22;56472;52.114;5.492;2023-04-25T12:34:49;12.80;60.90
69328;DHT22;56472;52.114;5.492;2023-04-25T12:37:16;12.70;59.70
69328;DHT22;56472;52.114;5.492;2023-04-25T12:39:43;12.70;58.70
69328;DHT22;56472;52.114;5.492;2023-04-25T12:42:10;12.60;58.40
69328;DHT22;56472;52.114;5.492;2023-04-25T12:44:39;12.50;59.70
69328;DHT22;56472;52.114;5.492;2023-04-25T12:47:06;12.50;59.10
69328;DHT22;56472;52.114;5.492;2023-04-25T12:49:34;12.40;57.90
69328;DHT22;56472;52.114;5.492;2023-04-25T12:52:00;12.50;58.50
69328;DHT22;56472;52.114;5.492;2023-04-25T12:54:27;12.40;57.90
69328;DHT22;56472;52.114;5.492;2023-04-25T12:56:54;12.40;60.30
69328;DHT22;56472;52.114;5.492;2023-04-25T12:59:21;12.50;60.70
69328;DHT22;56472;52.114;5.492;2023-04-25T13:01:48;12.70;58.00
69328;DHT22;56472;52.114;5.492;2023-04-25T13:04:15;12.90;57.00
69328;DHT22;56472;52.114;5.492;2023-04-25T13:06:43;13.00;56.80
69328;DHT22;56472;52.114;5.492;2023-04-25T13:09:10;13.20;56.60
69328;DHT22;56472;52.114;5.492;2023-04-25T13:11:39;13.40;55.30
69328;DHT22;56472;52.114;5.492;2023-04-25T13:14:07;13.40;53.80
69328;DHT22;56472;52.114;5.492;2023-04-25T13:16:34;13.50;55.00
69328;DHT22;56472;52.114;5.492;2023-04-25T13:19:01;13.60;56.10
69328;DHT22;56472;52.114;5.492;2023-04-25T13:21:30;13.80;54.80
69328;DHT22;56472;52.114;5.492;2023-04-25T13:23:59;14.00;54.10
69328;DHT22;56472;52.114;5.492;2023-04-25T13:26:26;14.20;51.60
69328;DHT22;56472;52.114;5.492;2023-04-25T13:28:53;14.30;52.20
69328;DHT22;56472;52.114;5.492;2023-04-25T13:31:19;14.20;51.30
69328;DHT22;56472;52.114;5.492;2023-04-25T13:33:46;14.10;53.30
69328;DHT22;56472;52.114;5.492;2023-04-25T13:36:14;14.10;53.40
69328;DHT22;56472;52.114;5.492;2023-04-25T13:38:41;14.10;54.50
69328;DHT22;56472;52.114;5.492;2023-04-25T13:41:10;14.20;54.10
69328;DHT22;56472;52.114;5.492;2023-04-25T13:43:40;14.20;53.60
69328;DHT22;56472;52.114;5.492;2023-04-25T13:46:07;14.20;53.70
69328;DHT22;56472;52.114;5.492;2023-04-25T13:48:38;14.20;52.20
69328;DHT22;56472;52.114;5.492;2023-04-25T13:51:05;14.20;51.20
69328;DHT22;56472;52.114;5.492;2023-04-25T13:53:32;14.10;49.10
69328;DHT22;56472;52.114;5.492;2023-04-25T13:55:59;14.00;49.40
69328;DHT22;56472;52.114;5.492;2023-04-25T13:58:26;14.00;51.60
69328;DHT22;56472;52.114;5.492;2023-04-25T14:00:52;14.20;51.20
69328;DHT22;56472;52.114;5.492;2023-04-25T14:03:20;14.40;51.40
69328;DHT22;56472;52.114;5.492;2023-04-25T14:05:47;14.60;51.50
69328;DHT22;56472;52.114;5.492;2023-04-25T14:08:14;15.00;50.20
69328;DHT22;56472;52.114;5.492;2023-04-25T14:10:41;15.40;49.50
69328;DHT22;56472;52.114;5.492;2023-04-25T14:13:08;15.50;48.50
69328;DHT22;56472;52.114;5.492;2023-04-25T14:15:37;15.60;47.70
69328;DHT22;56472;52.114;5.492;2023-04-25T14:18:04;15.50;48.10
69328;DHT22;56472;52.114;5.492;2023-04-25T14:20:31;15.50;46.20
69328;DHT22;56472;52.114;5.492;2023-04-25T14:22:58;15.50;47.00
69328;DHT22;56472;52.114;5.492;2023-04-25T14:25:25;15.60;45.90
69328;DHT22;56472;52.114;5.492;2023-04-25T14:27:52;15.90;47.10
69328;DHT22;56472;52.114;5.492;2023-04-25T14:30:20;16.30;48.20
69328;DHT22;56472;52.114;5.492;2023-04-25T14:32:51;16.80;47.10
69328;DHT22;56472;52.114;5.492;2023-04-25T14:35:18;17.30;43.70
69328;DHT22;56472;52.114;5.492;2023-04-25T14:37:45;17.70;44.80
69328;DHT22;56472;52.114;5.492;2023-04-25T14:40:12;18.20;44.80
69328;DHT22;56472;52.114;5.492;2023-04-25T14:42:41;18.70;44.10
69328;DHT22;56472;52.114;5.492;2023-04-25T14:45:09;19.00;41.60
69328;DHT22;56472;52.114;5.492;2023-04-25T14:47:36;19.10;37.70
69328;DHT22;56472;52.114;5.492;2023-04-25T14:50:04;18.90;37.20
69328;DHT22;56472;52.114;5.492;2023-04-25T14:52:31;18.80;38.30
69328;DHT22;56472;52.114;5.492;2023-04-25T14:54:58;18.80;39.70
69328;DHT22;56472;52.114;5.492;2023-04-25T14:57:28;18.70;36.90
69328;DHT22;56472;52.114;5.492;2023-04-25T14:59:55;18.60;38.60
69328;DHT22;56472;52.114;5.492;2023-04-25T15:02:24;18.70;40.10
69328;DHT22;56472;52.114;5.492;2023-04-25T15:04:51;19.00;40.60
69328;DHT22;56472;52.114;5.492;2023-04-25T15:07:18;19.30;38.40
69328;DHT22;56472;52.114;5.492;2023-04-25T15:09:44;19.30;37.20
69328;DHT22;56472;52.114;5.492;2023-04-25T15:12:12;19.20;37.60
69328;DHT22;56472;52.114;5.492;2023-04-25T15:14:38;19.00;36.70
69328;DHT22;56472;52.114;5.492;2023-04-25T15:17:05;18.90;37.20
69328;DHT22;56472;52.114;5.492;2023-04-25T15:19:33;18.80;37.60
69328;DHT22;56472;52.114;5.492;2023-04-25T15:21:59;18.80;38.60
69328;DHT22;56472;52.114;5.492;2023-04-25T15:24:29;18.90;37.20
69328;DHT22;56472;52.114;5.492;2023-04-25T15:26:56;19.20;37.40
69328;DHT22;56472;52.114;5.492;2023-04-25T15:29:24;19.40;36.70
69328;DHT22;56472;52.114;5.492;2023-04-25T15:31:53;19.70;36.50
69328;DHT22;56472;52.114;5.492;2023-04-25T15:34:20;19.90;36.50
69328;DHT22;56472;52.114;5.492;2023-04-25T15:36:47;20.10;34.60
69328;DHT22;56472;52.114;5.492;2023-04-25T15:39:14;20.10;34.60
69328;DHT22;56472;52.114;5.492;2023-04-25T15:41:41;19.90;34.90
69328;DHT22;56472;52.114;5.492;2023-04-25T15:44:08;19.50;34.90
69328;DHT22;56472;52.114;5.492;2023-04-25T15:46:37;19.10;34.90
69328;DHT22;56472;52.114;5.492;2023-04-25T15:49:04;18.60;36.50
69328;DHT22;56472;52.114;5.492;2023-04-25T15:51:31;18.30;35.80
69328;DHT22;56472;52.114;5.492;2023-04-25T15:53:59;17.80;36.30
69328;DHT22;56472;52.114;5.492;2023-04-25T15:56:28;17.50;36.90
69328;DHT22;56472;52.114;5.492;2023-04-25T15:58:55;17.20;38.10
69328;DHT22;56472;52.114;5.492;2023-04-25T16:01:22;16.90;39.50
69328;DHT22;56472;52.114;5.492;2023-04-25T16:03:50;16.60;39.70
69328;DHT22;56472;52.114;5.492;2023-04-25T16:06:19;16.30;41.00
69328;DHT22;56472;52.114;5.492;2023-04-25T16:08:46;16.00;41.80
69328;DHT22;56472;52.114;5.492;2023-04-25T16:11:13;15.80;42.00